sensor_id;sensor_type;location;lat;lon;timestamp;pressure;altitude;pressure_sealevel;temperature;humidity
75136;BME280;63707;52.212;9.540;2023-07-31T00:02:24;99350.47;;;14.06;100.00
75136;BME280;63707;52.212;9.540;2023-07-31T00:04:49;99339.25;;;14.08;100.00
75136;BME280;63707;52.212;9.540;2023-07-31T00:07:16;99339.75;;;14.05;100.00
75136;BME280;63707;52.212;9.540;2023-07-31T00:09:41;99340.34;;;14.07;100.00
75136;BME280;63707;52.212;9.540;2023-07-31T00:12:08;99340.09;;;14.08;100.00
75136;BME280;63707;52.212;9.540;2023-07-31T00:14:33;99338.19;;;14.09;100.00
75136;BME280;63707;52.212;9.540;2023-07-31T00:16:59;99342.25;;;14.06;100.00
75136;BME280;63707;52.212;9.540;2023-07-31T00:19:24;99342.25;;;14.06;100.00
75136;BME280;63707;52.212;9.540;2023-07-31T00:21:50;99328.56;;;14.06;100.00
75136;BME280;63707;52.212;9.540;2023-07-31T00:24:16;99322.56;;;14.09;100.00
75136;BME280;63707;52.212;9.540;2023-07-31T00:26:42;99324.16;;;14.05;100.00
75136;BME280;63707;52.212;9.540;2023-07-31T00:29:07;99324.50;;;14.09;100.00
75136;BME280;63707;52.212;9.540;2023-07-31T00:31:33;99319.84;;;14.09;100.00
75136;BME280;63707;52.212;9.540;2023-07-31T00:33:58;99320.34;;;14.06;100.00
75136;BME280;63707;52.212;9.540;2023-07-31T00:36:24;99309.63;;;14.05;100.00
75136;BME280;63707;52.212;9.540;2023-07-31T00:38:49;99310.22;;;14.07;100.00
75136;BME280;63707;52.212;9.540;2023-07-31T00:41:16;99315.19;;;14.10;100.00
75136;BME280;63707;52.212;9.540;2023-07-31T00:43:42;99308.31;;;14.07;100.00
75136;BME280;63707;52.212;9.540;2023-07-31T00:46:07;99312.69;;;14.08;100.00
75136;BME280;63707;52.212;9.540;2023-07-31T00:48:33;99299.25;;;14.07;100.00
75136;BME280;63707;52.212;9.540;2023-07-31T00:51:00;99307.97;;;14.04;100.00
75136;BME280;63707;52.212;9.540;2023-07-31T00:53:27;99303.06;;;14.06;100.00
75136;BME280;63707;52.212;9.540;2023-07-31T00:55:53;99298.66;;;14.05;100.00
75136;BME280;63707;52.212;9.540;2023-07-31T00:58:20;99295.94;;;14.05;100.00
75136;BME280;63707;52.212;9.540;2023-07-31T01:00:45;99293.44;;;14.03;100.00
75136;BME280;63707;52.212;9.540;2023-07-31T01:03:11;99292.38;;;14.04;100.00
75136;BME280;63707;52.212;9.540;2023-07-31T01:05:43;99285.56;;;14.07;100.00
75136;BME280;63707;52.212;9.540;2023-07-31T01:08:18;99283.06;;;14.05;100.00
75136;BME280;63707;52.212;9.540;2023-07-31T01:10:51;99278.41;;;14.06;100.00
75136;BME280;63707;52.212;9.540;2023-07-31T01:13:21;99275.94;;;14.04;100.00
75136;BME280;63707;52.212;9.540;2023-07-31T01:15:48;99270.69;;;14.03;100.00
75136;BME280;63707;52.212;9.540;2023-07-31T01:18:13;99272.59;;;14.02;100.00
75136;BME280;63707;52.212;9.540;2023-07-31T01:20:40;99263.81;;;14.00;100.00
75136;BME280;63707;52.212;9.540;2023-07-31T01:26:09;99267.63;;;13.99;100.00
75136;BME280;63707;52.212;9.540;2023-07-31T01:28:44;99256.41;;;14.01;100.00
75136;BME280;63707;52.212;9.540;2023-07-31T01:31:15;99250.13;;;14.00;100.00
75136;BME280;63707;52.212;9.540;2023-07-31T01:33:41;99244.88;;;13.99;100.00
75136;BME280;63707;52.212;9.540;2023-07-31T01:36:07;99235.84;;;13.98;100.00
75136;BME280;63707;52.212;9.540;2023-07-31T01:38:33;99249.19;;;13.95;100.00
75136;BME280;63707;52.212;9.540;2023-07-31T01:40:59;99235.75;;;13.93;100.00
75136;BME280;63707;52.212;9.540;2023-07-31T01:43:26;99237.41;;;13.94;100.00
75136;BME280;63707;52.212;9.540;2023-07-31T01:45:51;99232.78;;;13.95;100.00
75136;BME280;63707;52.212;9.540;2023-07-31T01:48:17;99219.06;;;13.95;100.00
75136;BME280;63707;52.212;9.540;2023-07-31T01:50:42;99222.88;;;13.94;100.00
75136;BME280;63707;52.212;9.540;2023-07-31T01:53:07;99218.25;;;13.94;100.00
75136;BME280;63707;52.212;9.540;2023-07-31T01:55:33;99216.34;;;13.95;100.00
75136;BME280;63707;52.212;9.540;2023-07-31T01:57:58;99222.63;;;13.95;100.00
75136;BME280;63707;52.212;9.540;2023-07-31T02:00:25;99230.03;;;13.95;100.00
75136;BME280;63707;52.212;9.540;2023-07-31T02:02:51;99218.81;;;13.96;100.00
75136;BME280;63707;52.212;9.540;2023-07-31T02:05:17;99214.44;;;13.95;100.00
75136;BME280;63707;52.212;9.540;2023-07-31T02:07:42;99215.25;;;13.96;100.00
75136;BME280;63707;52.212;9.540;2023-07-31T02:10:08;99203.47;;;13.95;100.00
75136;BME280;63707;52.212;9.540;2023-07-31T02:12:33;99205.72;;;13.98;100.00
75136;BME280;63707;52.212;9.540;2023-07-31T02:14:59;99202.97;;;13.98;100.00
75136;BME280;63707;52.212;9.540;2023-07-31T02:17:26;99198.31;;;13.99;100.00
75136;BME280;63707;52.212;9.540;2023-07-31T02:19:51;99198.31;;;13.99;100.00
75136;BME280;63707;52.212;9.540;2023-07-31T02:22:16;99199.16;;;13.99;100.00
75136;BME280;63707;52.212;9.540;2023-07-31T02:24:42;99186.03;;;14.01;100.00
75136;BME280;63707;52.212;9.540;2023-07-31T02:27:07;99186.63;;;14.03;100.00
75136;BME280;63707;52.212;9.540;2023-07-31T02:29:33;99183.63;;;14.05;100.00
75136;BME280;63707;52.212;9.540;2023-07-31T02:31:58;99187.53;;;14.09;100.00
75136;BME280;63707;52.212;9.540;2023-07-31T02:34:25;99185.59;;;14.09;100.00
75136;BME280;63707;52.212;9.540;2023-07-31T02:36:51;99191.09;;;14.09;100.00
75136;BME280;63707;52.212;9.540;2023-07-31T02:39:16;99182.03;;;14.09;100.00
75136;BME280;63707;52.212;9.540;2023-07-31T02:41:41;99175.72;;;14.08;100.00
75136;BME280;63707;52.212;9.540;2023-07-31T02:44:07;99179.56;;;14.07;100.00
75136;BME280;63707;52.212;9.540;2023-07-31T02:46:32;99186.69;;;14.08;100.00
75136;BME280;63707;52.212;9.540;2023-07-31T02:48:58;99176.31;;;14.10;100.00
75136;BME280;63707;52.212;9.540;2023-07-31T02:51:25;99184.28;;;14.12;100.00
75136;BME280;63707;52.212;9.540;2023-07-31T02:53:50;99176.31;;;14.10;100.00
75136;BME280;63707;52.212;9.540;2023-07-31T02:56:16;99170.25;;;14.08;100.00
75136;BME280;63707;52.212;9.540;2023-07-31T02:58:41;99169.44;;;14.08;100.00
75136;BME280;63707;52.212;9.540;2023-07-31T03:01:07;99173.81;;;14.09;100.00
75136;BME280;63707;52.212;9.540;2023-07-31T03:03:32;99175.47;;;14.10;100.00
75136;BME280;63707;52.212;9.540;2023-07-31T03:05:58;99177.66;;;14.08;100.00
75136;BME280;63707;52.212;9.540;2023-07-31T03:08:25;99176.00;;;14.07;100.00
75136;BME280;63707;52.212;9.540;2023-07-31T03:10:51;99183.88;;;14.03;100.00
75136;BME280;63707;52.212;9.540;2023-07-31T03:13:16;99185.53;;;14.04;100.00
75136;BME280;63707;52.212;9.540;2023-07-31T03:15:42;99187.38;;;13.99;100.00
75136;BME280;63707;52.212;9.540;2023-07-31T03:18:07;99180.81;;;14.00;100.00
75136;BME280;63707;52.212;9.540;2023-07-31T03:20:33;99180.22;;;13.98;100.00
75136;BME280;63707;52.212;9.540;2023-07-31T03:22:58;99181.88;;;13.99;100.00
75136;BME280;63707;52.212;9.540;2023-07-31T03:25:25;99182.13;;;13.97;100.00
75136;BME280;63707;52.212;9.540;2023-07-31T03:27:50;99185.13;;;13.96;100.00
75136;BME280;63707;52.212;9.540;2023-07-31T03:30:16;99180.47;;;13.96;100.00
75136;BME280;63707;52.212;9.540;2023-07-31T03:32:41;99190.28;;;13.92;100.00
75136;BME280;63707;52.212;9.540;2023-07-31T03:35:12;99183.41;;;13.90;100.00
75136;BME280;63707;52.212;9.540;2023-07-31T03:37:38;99190.69;;;13.84;100.00
75136;BME280;63707;52.212;9.540;2023-07-31T03:40:04;99179.50;;;13.85;100.00
75136;BME280;63707;52.212;9.540;2023-07-31T03:42:31;99184.97;;;13.85;100.00
75136;BME280;63707;52.212;9.540;2023-07-31T03:44:57;99185.38;;;13.77;100.00
75136;BME280;63707;52.212;9.540;2023-07-31T03:47:22;99181.81;;;13.77;100.00
75136;BME280;63707;52.212;9.540;2023-07-31T03:49:48;99176.66;;;13.64;100.00
75136;BME280;63707;52.212;9.540;2023-07-31T03:52:13;99178.72;;;13.57;100.00
75136;BME280;63707;52.212;9.540;2023-07-31T03:54:39;99172.91;;;13.53;100.00
75136;BME280;63707;52.212;9.540;2023-07-31T03:57:04;99166.44;;;13.42;100.00
75136;BME280;63707;52.212;9.540;2023-07-31T03:59:31;99171.31;;;13.40;100.00
75136;BME280;63707;52.212;9.540;2023-07-31T04:01:57;99173.38;;;13.33;100.00
75136;BME280;63707;52.212;9.540;2023-07-31T04:04:22;99170.41;;;13.35;100.00
75136;BME280;63707;52.212;9.540;2023-07-31T04:06:48;99172.31;;;13.34;100.00
75136;BME280;63707;52.212;9.540;2023-07-31T04:09:13;99171.13;;;13.30;100.00
75136;BME280;63707;52.212;9.540;2023-07-31T04:11:39;99171.06;;;13.25;100.00
75136;BME280;63707;52.212;9.540;2023-07-31T04:14:04;99171.88;;;13.26;100.00
75136;BME280;63707;52.212;9.540;2023-07-31T04:16:31;99172.09;;;13.24;100.00
75136;BME280;63707;52.212;9.540;2023-07-31T04:18:57;99172.47;;;13.28;100.00
75136;BME280;63707;52.212;9.540;2023-07-31T04:21:22;99164.75;;;13.25;100.00
75136;BME280;63707;52.212;9.540;2023-07-31T04:23:48;99167.25;;;13.26;100.00
75136;BME280;63707;52.212;9.540;2023-07-31T04:26:13;99169.97;;;13.26;100.00
75136;BME280;63707;52.212;9.540;2023-07-31T04:28:38;99163.69;;;13.26;100.00
75136;BME280;63707;52.212;9.540;2023-07-31T04:31:04;99155.69;;;13.24;100.00
75136;BME280;63707;52.212;9.540;2023-07-31T04:33:31;99145.34;;;13.26;100.00
75136;BME280;63707;52.212;9.540;2023-07-31T04:35:57;99152.56;;;13.32;100.00
75136;BME280;63707;52.212;9.540;2023-07-31T04:38:22;99148.44;;;13.30;100.00
75136;BME280;63707;52.212;9.540;2023-07-31T04:40:48;99151.50;;;13.33;100.00
75136;BME280;63707;52.212;9.540;2023-07-31T04:43:14;99151.00;;;13.36;100.00
75136;BME280;63707;52.212;9.540;2023-07-31T04:45:41;99147.53;;;13.41;100.00
75136;BME280;63707;52.212;9.540;2023-07-31T04:48:07;99151.09;;;13.41;100.00
75136;BME280;63707;52.212;9.540;2023-07-31T04:50:34;99151.19;;;13.46;100.00
75136;BME280;63707;52.212;9.540;2023-07-31T04:52:59;99150.69;;;13.49;100.00
75136;BME280;63707;52.212;9.540;2023-07-31T04:55:25;99148.03;;;13.54;100.00
75136;BME280;63707;52.212;9.540;2023-07-31T04:57:50;99154.66;;;13.59;100.00
75136;BME280;63707;52.212;9.540;2023-07-31T05:00:16;99150.34;;;13.63;100.00
75136;BME280;63707;52.212;9.540;2023-07-31T05:02:42;99143.06;;;13.68;100.00
75136;BME280;63707;52.212;9.540;2023-07-31T05:05:08;99142.56;;;13.71;100.00
75136;BME280;63707;52.212;9.540;2023-07-31T05:07:34;99141.59;;;13.77;100.00
75136;BME280;63707;52.212;9.540;2023-07-31T05:10:00;99138.09;;;13.82;100.00
75136;BME280;63707;52.212;9.540;2023-07-31T05:12:25;99139.56;;;13.90;100.00
75136;BME280;63707;52.212;9.540;2023-07-31T05:14:51;99140.72;;;13.94;100.00
75136;BME280;63707;52.212;9.540;2023-07-31T05:17:16;99145.47;;;13.98;100.00
75136;BME280;63707;52.212;9.540;2023-07-31T05:19:42;99149.09;;;14.04;100.00
75136;BME280;63707;52.212;9.540;2023-07-31T05:22:07;99145.84;;;14.07;100.00
75136;BME280;63707;52.212;9.540;2023-07-31T05:24:34;99138.78;;;14.11;100.00
75136;BME280;63707;52.212;9.540;2023-07-31T05:27:00;99143.50;;;14.15;100.00
75136;BME280;63707;52.212;9.540;2023-07-31T05:29:25;99142.44;;;14.16;100.00
75136;BME280;63707;52.212;9.540;2023-07-31T05:31:51;99147.66;;;14.18;100.00
75136;BME280;63707;52.212;9.540;2023-07-31T05:34:16;99146.00;;;14.17;100.00
75136;BME280;63707;52.212;9.540;2023-07-31T05:36:42;99145.75;;;14.18;100.00
75136;BME280;63707;52.212;9.540;2023-07-31T05:39:07;99135.66;;;14.19;100.00
75136;BME280;63707;52.212;9.540;2023-07-31T05:41:35;99134.78;;;14.18;100.00
75136;BME280;63707;52.212;9.540;2023-07-31T05:44:01;99133.75;;;14.20;100.00
75136;BME280;63707;52.212;9.540;2023-07-31T05:46:26;99132.97;;;14.24;100.00
75136;BME280;63707;52.212;9.540;2023-07-31T05:48:52;99124.50;;;14.26;100.00
75136;BME280;63707;52.212;9.540;2023-07-31T05:51:17;99129.97;;;14.26;100.00
75136;BME280;63707;52.212;9.540;2023-07-31T05:53:43;99132.47;;;14.27;100.00
75136;BME280;63707;52.212;9.540;2023-07-31T05:56:09;99132.22;;;14.29;100.00
75136;BME280;63707;52.212;9.540;2023-07-31T05:58:35;99124.50;;;14.26;100.00
75136;BME280;63707;52.212;9.540;2023-07-31T06:01:01;99128.06;;;14.26;100.00
75136;BME280;63707;52.212;9.540;2023-07-31T06:03:26;99132.47;;;14.27;100.00
75136;BME280;63707;52.212;9.540;2023-07-31T06:05:52;99131.31;;;14.23;100.00
75136;BME280;63707;52.212;9.540;2023-07-31T06:08:17;99122.59;;;14.26;100.00
75136;BME280;63707;52.212;9.540;2023-07-31T06:10:43;99129.41;;;14.24;100.00
75136;BME280;63707;52.212;9.540;2023-07-31T06:13:08;99128.84;;;14.22;100.00
75136;BME280;63707;52.212;9.540;2023-07-31T06:15:35;99132.41;;;14.22;100.00
75136;BME280;63707;52.212;9.540;2023-07-31T06:18:01;99140.88;;;14.21;100.00
75136;BME280;63707;52.212;9.540;2023-07-31T06:20:27;99137.53;;;14.18;100.00
75136;BME280;63707;52.212;9.540;2023-07-31T06:22:52;99137.78;;;14.17;100.00
75136;BME280;63707;52.212;9.540;2023-07-31T06:25:18;99143.88;;;14.19;100.00
75136;BME280;63707;52.212;9.540;2023-07-31T06:27:43;99149.34;;;14.19;100.00
75136;BME280;63707;52.212;9.540;2023-07-31T06:30:10;99143.63;;;14.21;100.00
75136;BME280;63707;52.212;9.540;2023-07-31T06:32:37;99140.88;;;14.21;100.00
75136;BME280;63707;52.212;9.540;2023-07-31T06:35:02;99139.53;;;14.23;100.00
75136;BME280;63707;52.212;9.540;2023-07-31T06:37:28;99139.53;;;14.23;100.00
75136;BME280;63707;52.212;9.540;2023-07-31T06:39:53;99144.44;;;14.21;100.00
75136;BME280;63707;52.212;9.540;2023-07-31T06:42:19;99152.66;;;14.21;100.00
75136;BME280;63707;52.212;9.540;2023-07-31T06:44:44;99143.63;;;14.21;100.00
75136;BME280;63707;52.212;9.540;2023-07-31T06:47:10;99141.19;;;14.24;100.00
75136;BME280;63707;52.212;9.540;2023-07-31T06:49:37;99148.34;;;14.25;100.00
75136;BME280;63707;52.212;9.540;2023-07-31T06:52:03;99151.31;;;14.24;100.00
75136;BME280;63707;52.212;9.540;2023-07-31T06:54:28;99147.25;;;14.26;100.00
75136;BME280;63707;52.212;9.540;2023-07-31T06:56:54;99143.69;;;14.26;100.00
75136;BME280;63707;52.212;9.540;2023-07-31T06:59:19;99132.22;;;14.29;100.00
75136;BME280;63707;52.212;9.540;2023-07-31T07:01:44;99142.09;;;14.30;100.00
75136;BME280;63707;52.212;9.540;2023-07-31T07:04:10;99133.63;;;14.31;100.00
75136;BME280;63707;52.212;9.540;2023-07-31T07:06:37;99128.72;;;14.33;100.00
75136;BME280;63707;52.212;9.540;2023-07-31T07:09:02;99119.72;;;14.38;100.00
75136;BME280;63707;52.212;9.540;2023-07-31T07:11:28;99127.38;;;14.36;100.00
75136;BME280;63707;52.212;9.540;2023-07-31T07:13:54;99127.88;;;14.33;100.00
75136;BME280;63707;52.212;9.540;2023-07-31T07:16:19;99119.72;;;14.38;100.00
75136;BME280;63707;52.212;9.540;2023-07-31T07:18:45;99115.16;;;14.43;100.00
75136;BME280;63707;52.212;9.540;2023-07-31T07:21:10;99120.78;;;14.54;100.00
75136;BME280;63707;52.212;9.540;2023-07-31T07:23:41;99116.31;;;14.47;100.00
75136;BME280;63707;52.212;9.540;2023-07-31T07:26:06;99111.97;;;14.52;100.00
75136;BME280;63707;52.212;9.540;2023-07-31T07:28:32;99128.44;;;14.52;100.00
75136;BME280;63707;52.212;9.540;2023-07-31T07:30:57;99124.28;;;14.49;100.00
75136;BME280;63707;52.212;9.540;2023-07-31T07:33:23;99130.59;;;14.49;100.00
75136;BME280;63707;52.212;9.540;2023-07-31T07:35:49;99138.81;;;14.49;100.00
75136;BME280;63707;52.212;9.540;2023-07-31T07:38:14;99132.44;;;14.44;100.00
75136;BME280;63707;52.212;9.540;2023-07-31T07:40:45;99133.75;;;14.41;100.00
75136;BME280;63707;52.212;9.540;2023-07-31T07:43:13;99141.66;;;14.38;100.00
75136;BME280;63707;52.212;9.540;2023-07-31T07:45:39;99132.84;;;14.36;100.00
75136;BME280;63707;52.212;9.540;2023-07-31T07:48:04;99128.88;;;14.43;100.00
75136;BME280;63707;52.212;9.540;2023-07-31T07:50:30;99114.00;;;14.61;100.00
75136;BME280;63707;52.212;9.540;2023-07-31T07:52:55;99121.63;;;14.76;100.00
75136;BME280;63707;52.212;9.540;2023-07-31T07:55:21;99126.06;;;14.82;100.00
75136;BME280;63707;52.212;9.540;2023-07-31T07:57:48;99125.94;;;14.94;100.00
75136;BME280;63707;52.212;9.540;2023-07-31T08:00:16;99127.63;;;15.00;100.00
75136;BME280;63707;52.212;9.540;2023-07-31T08:02:42;99121.16;;;15.11;100.00
75136;BME280;63707;52.212;9.540;2023-07-31T08:05:08;99111.44;;;15.25;100.00
75136;BME280;63707;52.212;9.540;2023-07-31T08:07:33;99128.97;;;15.19;100.00
75136;BME280;63707;52.212;9.540;2023-07-31T08:09:59;99125.13;;;15.20;100.00
75136;BME280;63707;52.212;9.540;2023-07-31T08:12:24;99130.84;;;14.92;100.00
75136;BME280;63707;52.212;9.540;2023-07-31T08:14:51;99124.53;;;14.91;100.00
75136;BME280;63707;52.212;9.540;2023-07-31T08:17:17;99112.31;;;15.04;100.00
75136;BME280;63707;52.212;9.540;2023-07-31T08:19:42;99116.03;;;14.93;100.00
75136;BME280;63707;52.212;9.540;2023-07-31T08:22:09;99107.44;;;14.84;100.00
75136;BME280;63707;52.212;9.540;2023-07-31T08:24:34;99110.69;;;14.81;100.00
75136;BME280;63707;52.212;9.540;2023-07-31T08:27:00;99109.06;;;14.80;100.00
75136;BME280;63707;52.212;9.540;2023-07-31T08:29:25;99113.97;;;14.78;100.00
75136;BME280;63707;52.212;9.540;2023-07-31T08:31:52;99119.72;;;14.76;100.00
75136;BME280;63707;52.212;9.540;2023-07-31T08:34:18;99110.66;;;14.76;100.00
75136;BME280;63707;52.212;9.540;2023-07-31T08:36:43;99102.69;;;14.74;100.00
75136;BME280;63707;52.212;9.540;2023-07-31T08:39:10;99108.69;;;14.71;100.00
75136;BME280;63707;52.212;9.540;2023-07-31T08:41:37;99105.69;;;14.73;100.00
75136;BME280;63707;52.212;9.540;2023-07-31T08:44:03;99098.34;;;14.78;100.00
75136;BME280;63707;52.212;9.540;2023-07-31T08:46:29;99099.38;;;14.72;100.00
75136;BME280;63707;52.212;9.540;2023-07-31T08:48:58;99092.22;;;14.71;100.00
75136;BME280;63707;52.212;9.540;2023-07-31T08:51:24;99092.47;;;14.70;100.00
75136;BME280;63707;52.212;9.540;2023-07-31T08:53:49;99090.25;;;14.67;100.00
75136;BME280;63707;52.212;9.540;2023-07-31T08:56:15;99087.69;;;14.60;100.00
75136;BME280;63707;52.212;9.540;2023-07-31T08:58:43;99087.94;;;14.59;100.00
75136;BME280;63707;52.212;9.540;2023-07-31T09:01:09;99085.00;;;14.65;100.00
75136;BME280;63707;52.212;9.540;2023-07-31T09:03:36;99083.09;;;14.66;100.00
75136;BME280;63707;52.212;9.540;2023-07-31T09:06:04;99076.34;;;14.73;100.00
75136;BME280;63707;52.212;9.540;2023-07-31T09:08:31;99073.59;;;15.00;100.00
75136;BME280;63707;52.212;9.540;2023-07-31T09:10:59;99067.28;;;15.27;100.00
75136;BME280;63707;52.212;9.540;2023-07-31T09:13:25;99063.25;;;15.39;100.00
75136;BME280;63707;52.212;9.540;2023-07-31T09:15:51;99063.50;;;15.33;100.00
75136;BME280;63707;52.212;9.540;2023-07-31T09:18:16;99066.09;;;15.18;100.00
75136;BME280;63707;52.212;9.540;2023-07-31T09:20:44;99063.53;;;15.11;100.00
75136;BME280;63707;52.212;9.540;2023-07-31T09:23:12;99057.56;;;15.14;100.00
75136;BME280;63707;52.212;9.540;2023-07-31T09:25:39;99050.88;;;15.05;100.00
75136;BME280;63707;52.212;9.540;2023-07-31T09:28:06;99061.03;;;15.04;100.00
75136;BME280;63707;52.212;9.540;2023-07-31T09:30:45;99045.38;;;15.05;100.00
75136;BME280;63707;52.212;9.540;2023-07-31T09:33:11;99051.13;;;15.03;100.00
75136;BME280;63707;52.212;9.540;2023-07-31T09:35:36;99042.44;;;15.11;100.00
75136;BME280;63707;52.212;9.540;2023-07-31T09:38:07;99045.94;;;15.07;100.00
75136;BME280;63707;52.212;9.540;2023-07-31T09:40:36;99050.34;;;15.08;100.00
75136;BME280;63707;52.212;9.540;2023-07-31T09:43:03;99049.06;;;15.16;100.00
75136;BME280;63707;52.212;9.540;2023-07-31T09:45:32;99053.72;;;15.15;100.00
75136;BME280;63707;52.212;9.540;2023-07-31T09:47:58;99045.59;;;15.25;100.00
75136;BME280;63707;52.212;9.540;2023-07-31T09:50:24;99045.38;;;15.32;100.00
75136;BME280;63707;52.212;9.540;2023-07-31T09:52:50;99035.50;;;15.36;100.00
75136;BME280;63707;52.212;9.540;2023-07-31T09:55:17;99032.78;;;15.36;100.00
75136;BME280;63707;52.212;9.540;2023-07-31T09:57:45;99024.00;;;15.39;100.00
75136;BME280;63707;52.212;9.540;2023-07-31T10:00:12;99021.81;;;15.41;100.00
75136;BME280;63707;52.212;9.540;2023-07-31T10:02:39;99023.47;;;15.42;100.00
75136;BME280;63707;52.212;9.540;2023-07-31T10:05:06;99023.22;;;15.43;100.00
75136;BME280;63707;52.212;9.540;2023-07-31T10:07:36;99016.94;;;15.48;100.00
75136;BME280;63707;52.212;9.540;2023-07-31T10:10:04;99027.94;;;15.53;100.00
75136;BME280;63707;52.212;9.540;2023-07-31T10:12:32;99025.28;;;15.58;100.00
75136;BME280;63707;52.212;9.540;2023-07-31T10:15:00;99028.56;;;15.60;100.00
75136;BME280;63707;52.212;9.540;2023-07-31T10:17:26;99019.56;;;15.65;100.00
75136;BME280;63707;52.212;9.540;2023-07-31T10:19:52;99011.34;;;15.65;100.00
75136;BME280;63707;52.212;9.540;2023-07-31T10:22:19;99011.38;;;15.70;100.00
75136;BME280;63707;52.212;9.540;2023-07-31T10:24:45;99005.44;;;15.93;100.00
75136;BME280;63707;52.212;9.540;2023-07-31T10:27:11;99004.91;;;15.96;100.00
75136;BME280;63707;52.212;9.540;2023-07-31T10:29:38;99008.78;;;16.05;100.00
75136;BME280;63707;52.212;9.540;2023-07-31T10:32:06;99017.03;;;16.05;100.00
75136;BME280;63707;52.212;9.540;2023-07-31T10:34:35;99009.03;;;15.99;100.00
75136;BME280;63707;52.212;9.540;2023-07-31T10:37:21;99001.84;;;15.88;100.00
75136;BME280;63707;52.212;9.540;2023-07-31T10:39:58;99013.91;;;15.82;100.00
75136;BME280;63707;52.212;9.540;2023-07-31T10:42:29;99007.03;;;15.84;100.00
75136;BME280;63707;52.212;9.540;2023-07-31T10:44:57;99004.09;;;15.96;100.00
75136;BME280;63707;52.212;9.540;2023-07-31T10:47:25;98993.91;;;15.96;100.00
75136;BME280;63707;52.212;9.540;2023-07-31T10:49:50;98998.59;;;15.96;100.00
75136;BME280;63707;52.212;9.540;2023-07-31T10:52:19;98998.34;;;16.02;100.00
75136;BME280;63707;52.212;9.540;2023-07-31T10:54:47;99010.69;;;16.00;100.00
75136;BME280;63707;52.212;9.540;2023-07-31T10:57:20;99000.53;;;16.00;100.00
75136;BME280;63707;52.212;9.540;2023-07-31T10:59:46;99002.19;;;16.01;100.00
75136;BME280;63707;52.212;9.540;2023-07-31T11:02:25;99003.63;;;16.09;100.00
75136;BME280;63707;52.212;9.540;2023-07-31T11:05:06;99004.22;;;16.21;100.00
75136;BME280;63707;52.212;9.540;2023-07-31T11:07:46;99011.06;;;16.14;100.00
75136;BME280;63707;52.212;9.540;2023-07-31T11:10:16;99004.44;;;16.10;100.00
75136;BME280;63707;52.212;9.540;2023-07-31T11:12:41;98996.19;;;16.10;100.00
75136;BME280;63707;52.212;9.540;2023-07-31T11:15:08;98993.47;;;16.15;100.00
75136;BME280;63707;52.212;9.540;2023-07-31T11:17:38;98988.56;;;16.22;100.00
75136;BME280;63707;52.212;9.540;2023-07-31T11:20:04;98996.50;;;16.13;100.00
75136;BME280;63707;52.212;9.540;2023-07-31T11:22:30;98996.44;;;16.08;100.00
75136;BME280;63707;52.212;9.540;2023-07-31T11:24:56;98997.31;;;16.14;100.00
75136;BME280;63707;52.212;9.540;2023-07-31T11:27:21;98993.13;;;16.06;100.00
75136;BME280;63707;52.212;9.540;2023-07-31T11:29:47;98993.97;;;16.06;100.00
75136;BME280;63707;52.212;9.540;2023-07-31T11:32:16;98991.75;;;16.03;100.00
75136;BME280;63707;52.212;9.540;2023-07-31T11:34:52;98992.88;;;16.08;100.00
75136;BME280;63707;52.212;9.540;2023-07-31T11:37:17;98988.72;;;16.05;100.00
75136;BME280;63707;52.212;9.540;2023-07-31T11:39:43;98982.38;;;15.99;100.00
75136;BME280;63707;52.212;9.540;2023-07-31T11:42:08;98981.84;;;16.02;100.00
75136;BME280;63707;52.212;9.540;2023-07-31T11:44:38;98977.75;;;16.05;100.00
75136;BME280;63707;52.212;9.540;2023-07-31T11:47:04;98981.88;;;16.08;100.00
75136;BME280;63707;52.212;9.540;2023-07-31T11:49:29;98977.53;;;16.12;100.00
75136;BME280;63707;52.212;9.540;2023-07-31T11:51:56;98971.22;;;16.16;100.00
75136;BME280;63707;52.212;9.540;2023-07-31T11:54:22;98974.78;;;16.12;100.00
75136;BME280;63707;52.212;9.540;2023-07-31T11:56:48;98959.94;;;16.13;100.00
75136;BME280;63707;52.212;9.540;2023-07-31T11:59:15;98970.06;;;16.07;100.00
75136;BME280;63707;52.212;9.540;2023-07-31T12:01:40;98957.94;;;16.03;100.00
75136;BME280;63707;52.212;9.540;2023-07-31T12:04:06;98952.47;;;16.03;100.00
75136;BME280;63707;52.212;9.540;2023-07-31T12:06:32;98959.28;;;15.95;100.00
75136;BME280;63707;52.212;9.540;2023-07-31T12:09:02;98959.53;;;15.89;100.00
75136;BME280;63707;52.212;9.540;2023-07-31T12:11:28;98945.53;;;15.90;100.00
75136;BME280;63707;52.212;9.540;2023-07-31T12:13:54;98959.00;;;15.92;100.00
75136;BME280;63707;52.212;9.540;2023-07-31T12:16:19;98954.91;;;15.99;100.00
75136;BME280;63707;52.212;9.540;2023-07-31T12:18:45;98953.81;;;16.00;100.00
75136;BME280;63707;52.212;9.540;2023-07-31T12:21:14;98956.56;;;16.00;100.00
75136;BME280;63707;52.212;9.540;2023-07-31T12:23:40;98953.56;;;16.02;100.00
75136;BME280;63707;52.212;9.540;2023-07-31T12:26:12;98949.44;;;16.04;100.00
75136;BME280;63707;52.212;9.540;2023-07-31T12:28:40;98951.91;;;16.06;100.00
75136;BME280;63707;52.212;9.540;2023-07-31T12:31:08;98951.13;;;16.11;100.00
75136;BME280;63707;52.212;9.540;2023-07-31T12:33:35;98950.25;;;16.05;100.00
75136;BME280;63707;52.212;9.540;2023-07-31T12:36:03;98950.34;;;16.20;100.00
75136;BME280;63707;52.212;9.540;2023-07-31T12:38:29;98947.25;;;16.06;100.00
75136;BME280;63707;52.212;9.540;2023-07-31T12:40:54;98943.94;;;15.99;100.00
75136;BME280;63707;52.212;9.540;2023-07-31T12:43:21;98946.69;;;16.04;100.00
75136;BME280;63707;52.212;9.540;2023-07-31T12:45:47;98947.78;;;16.03;100.00
75136;BME280;63707;52.212;9.540;2023-07-31T12:48:13;98944.50;;;16.06;100.00
75136;BME280;63707;52.212;9.540;2023-07-31T12:50:38;98952.25;;;16.15;100.00